createdAt,value
2023-02-27T00:00:57.040Z,998.72
2023-02-27T00:01:58.801Z,998.78
2023-02-27T00:03:00.552Z,998.77
2023-02-27T00:04:02.315Z,998.73
2023-02-27T00:05:04.004Z,998.79
2023-02-27T00:06:05.682Z,998.74
2023-02-27T00:07:07.456Z,998.75
2023-02-27T00:08:09.150Z,998.72
2023-02-27T00:09:10.948Z,998.74
2023-02-27T00:10:12.683Z,998.79
2023-02-27T00:11:14.374Z,998.69
2023-02-27T00:12:16.089Z,998.79
2023-02-27T00:13:17.842Z,998.75
2023-02-27T00:14:19.606Z,998.69
2023-02-27T00:15:21.289Z,998.73
2023-02-27T00:16:23.127Z,998.79
2023-02-27T00:17:24.765Z,998.74
2023-02-27T00:18:26.485Z,998.69
2023-02-27T00:19:28.241Z,998.73
2023-02-27T00:20:29.999Z,998.76
2023-02-27T00:21:31.699Z,998.8
2023-02-27T00:22:33.444Z,998.74
2023-02-27T00:23:35.162Z,998.74
2023-02-27T00:24:36.938Z,998.72
2023-02-27T00:25:38.678Z,998.77
2023-02-27T00:26:40.397Z,998.7
2023-02-27T00:27:42.183Z,998.58
2023-02-27T00:28:43.823Z,998.68
2023-02-27T00:29:45.563Z,998.67
2023-02-27T00:30:47.373Z,998.71
2023-02-27T00:31:49.156Z,998.69
2023-02-27T00:32:50.757Z,998.66
2023-02-27T00:33:52.500Z,998.58
2023-02-27T00:34:54.228Z,998.69
2023-02-27T00:35:55.972Z,998.69
2023-02-27T00:36:57.682Z,998.65
2023-02-27T00:38:00.727Z,998.65
2023-02-27T00:39:01.147Z,998.66
2023-02-27T00:40:02.897Z,998.66
2023-02-27T00:41:04.651Z,998.74
2023-02-27T00:42:06.414Z,998.7
2023-02-27T00:43:08.139Z,998.71
2023-02-27T00:44:09.887Z,998.73
2023-02-27T00:45:11.594Z,998.65
2023-02-27T00:46:13.443Z,998.66
2023-02-27T00:47:15.056Z,998.66
2023-02-27T00:48:16.931Z,998.66
2023-02-27T00:49:18.534Z,998.64
2023-02-27T00:50:20.291Z,998.71
2023-02-27T00:51:21.962Z,998.67
2023-02-27T00:52:23.726Z,998.71
2023-02-27T00:53:25.429Z,998.69
2023-02-27T00:54:27.161Z,998.69
2023-02-27T00:55:28.909Z,998.69
2023-02-27T00:56:30.615Z,998.7
2023-02-27T00:57:32.417Z,998.61
2023-02-27T00:58:34.084Z,998.68
2023-02-27T00:59:35.803Z,998.66
2023-02-27T01:00:38.806Z,998.68
2023-02-27T01:03:38.234Z,998.7
2023-02-27T01:04:50.037Z,998.64
2023-02-27T01:05:50.926Z,998.64
2023-02-27T01:06:52.288Z,998.66
2023-02-27T01:07:53.240Z,998.68
2023-02-27T01:08:55.585Z,998.64
2023-02-27T01:09:56.108Z,998.73
2023-02-27T01:10:57.575Z,998.71
2023-02-27T01:11:57.750Z,998.72
2023-02-27T01:12:59.937Z,998.7
2023-02-27T01:14:01.664Z,998.7
2023-02-27T01:15:07.193Z,998.66
2023-02-27T01:16:25.876Z,998.63
2023-02-27T01:18:00.770Z,998.7
2023-02-27T01:19:03.254Z,998.72
2023-02-27T01:20:09.211Z,998.64
2023-02-27T01:21:13.114Z,998.65
2023-02-27T01:22:29.852Z,998.68
2023-02-27T01:23:30.550Z,998.74
2023-02-27T01:25:08.792Z,998.69
2023-02-27T01:26:40.394Z,998.64
2023-02-27T01:27:42.884Z,998.62
2023-02-27T01:28:44.492Z,998.64
2023-02-27T01:29:47.536Z,998.68
2023-02-27T01:30:49.485Z,998.7
2023-02-27T01:31:59.793Z,998.7
2023-02-27T01:32:59.782Z,998.72
2023-02-27T01:34:06.912Z,998.7
2023-02-27T01:35:08.408Z,998.69
2023-02-27T01:36:11.303Z,998.72
2023-02-27T01:37:12.958Z,998.67
2023-02-27T01:38:13.590Z,998.68
2023-02-27T01:39:15.833Z,998.72
2023-02-27T01:40:17.046Z,998.67
2023-02-27T01:41:28.041Z,998.66
2023-02-27T01:42:41.391Z,998.62
2023-02-27T01:43:42.756Z,998.63
2023-02-27T01:44:44.520Z,998.65
2023-02-27T01:45:46.276Z,998.6
2023-02-27T01:46:48.040Z,998.58
2023-02-27T01:47:49.736Z,998.61
2023-02-27T01:48:51.439Z,998.66
2023-02-27T01:49:53.213Z,998.63
2023-02-27T01:50:54.922Z,998.66
2023-02-27T01:51:56.633Z,998.63
2023-02-27T01:52:58.376Z,998.63
2023-02-27T01:54:00.110Z,998.62
2023-02-27T01:55:01.835Z,998.61
2023-02-27T01:56:03.581Z,998.52
2023-02-27T01:57:05.312Z,998.57
2023-02-27T01:58:07.049Z,998.63
2023-02-27T01:59:08.804Z,998.6
2023-02-27T02:00:10.517Z,998.6
2023-02-27T02:01:12.397Z,998.55
2023-02-27T02:02:14.055Z,998.59
2023-02-27T02:03:15.691Z,998.59
2023-02-27T02:04:17.447Z,998.67
2023-02-27T02:05:19.193Z,998.54
2023-02-27T02:06:20.933Z,998.57
2023-02-27T02:07:22.640Z,998.6
2023-02-27T02:08:24.408Z,998.58
2023-02-27T02:09:26.092Z,998.57
2023-02-27T02:10:27.856Z,998.54
2023-02-27T02:11:29.632Z,998.5
2023-02-27T02:12:34.007Z,998.51
2023-02-27T02:13:38.272Z,998.56
2023-02-27T02:14:39.997Z,998.53
2023-02-27T02:15:41.721Z,998.44
2023-02-27T02:16:43.467Z,998.53
2023-02-27T02:17:45.165Z,998.51
2023-02-27T02:18:46.933Z,998.57
2023-02-27T02:19:48.639Z,998.56
2023-02-27T02:20:50.408Z,998.48
2023-02-27T02:21:52.088Z,998.56
2023-02-27T02:22:53.901Z,998.54
2023-02-27T02:23:55.832Z,998.53
2023-02-27T02:25:05.104Z,998.47
2023-02-27T02:26:08.562Z,998.5
2023-02-27T02:27:11.069Z,998.48
2023-02-27T02:28:12.808Z,998.55
2023-02-27T02:29:14.636Z,998.58
2023-02-27T02:30:22.776Z,998.53
2023-02-27T02:31:23.222Z,998.53
2023-02-27T02:32:30.885Z,998.47
2023-02-27T02:33:36.623Z,998.55
2023-02-27T02:34:41.010Z,998.55
2023-02-27T02:35:44.174Z,998.58
2023-02-27T02:36:45.978Z,998.61
2023-02-27T02:37:47.776Z,998.59
2023-02-27T02:39:04.096Z,998.58
2023-02-27T02:40:07.480Z,998.56
2023-02-27T02:41:10.834Z,998.59
2023-02-27T02:42:26.285Z,998.61
2023-02-27T02:43:28.017Z,998.54
2023-02-27T02:45:07.994Z,998.63
2023-02-27T02:46:11.606Z,998.64
2023-02-27T02:47:11.758Z,998.63
2023-02-27T02:48:50.210Z,998.56
2023-02-27T02:49:53.669Z,998.57
2023-02-27T02:50:58.320Z,998.55
2023-02-27T02:52:13.137Z,998.61
2023-02-27T02:53:17.215Z,998.62
2023-02-27T02:54:24.834Z,998.61
2023-02-27T02:55:27.733Z,998.56
2023-02-27T02:56:29.334Z,998.59
2023-02-27T02:57:30.202Z,998.57
2023-02-27T02:58:33.246Z,998.66
2023-02-27T02:59:33.797Z,998.66
2023-02-27T03:00:35.399Z,998.65
2023-02-27T03:01:36.692Z,998.62
2023-02-27T03:02:38.882Z,998.64
2023-02-27T03:03:40.636Z,998.68
2023-02-27T03:04:51.745Z,998.67
2023-02-27T03:05:52.165Z,998.68
2023-02-27T03:06:53.723Z,998.68
2023-02-27T03:07:55.493Z,998.65
2023-02-27T03:09:11.336Z,998.67
2023-02-27T03:10:25.094Z,998.6
2023-02-27T03:11:30.677Z,998.64
2023-02-27T03:12:31.987Z,998.66
2023-02-27T03:13:35.126Z,998.64
2023-02-27T03:14:36.864Z,998.58
2023-02-27T03:15:38.332Z,998.63
2023-02-27T03:17:26.583Z,998.66
2023-02-27T03:18:33.932Z,998.63
2023-02-27T03:19:40.418Z,998.61
2023-02-27T03:21:05.160Z,998.59
2023-02-27T03:22:07.178Z,998.59
2023-02-27T03:23:11.885Z,998.61
2023-02-27T03:24:14.576Z,998.6
2023-02-27T03:25:17.080Z,998.63
2023-02-27T03:26:22.559Z,998.64
2023-02-27T03:27:25.055Z,998.68
2023-02-27T03:28:47.981Z,998.61
2023-02-27T03:29:49.646Z,998.68
2023-02-27T03:30:52.591Z,998.66
2023-02-27T03:32:16.042Z,998.67
2023-02-27T03:33:20.587Z,998.69
2023-02-27T03:34:22.310Z,998.66
2023-02-27T03:35:25.504Z,998.62
2023-02-27T03:36:25.746Z,998.62
2023-02-27T03:37:31.903Z,998.7
2023-02-27T03:38:33.287Z,998.68
2023-02-27T03:39:45.701Z,998.66
2023-02-27T03:40:50.403Z,998.7
2023-02-27T03:41:53.129Z,998.68
2023-02-27T03:42:56.197Z,998.77
2023-02-27T03:43:56.460Z,998.76
2023-02-27T03:45:11.328Z,998.79
2023-02-27T03:46:13.108Z,998.67
2023-02-27T03:47:14.822Z,998.8
2023-02-27T03:48:16.569Z,998.88
2023-02-27T03:49:24.248Z,998.88
2023-02-27T03:50:25.218Z,998.85
2023-02-27T03:51:27.298Z,998.86
2023-02-27T03:52:29.956Z,998.89
2023-02-27T03:53:35.517Z,998.85
2023-02-27T03:54:41.792Z,998.92
2023-02-27T03:55:50.297Z,998.89
2023-02-27T03:56:51.095Z,998.78
2023-02-27T03:57:53.859Z,998.88
2023-02-27T03:58:54.333Z,998.82
2023-02-27T04:00:05.203Z,998.82
2023-02-27T04:01:18.882Z,998.86
2023-02-27T04:02:37.215Z,998.85
2023-02-27T04:03:50.586Z,998.81
2023-02-27T04:05:06.185Z,998.92
2023-02-27T04:06:09.352Z,998.89
2023-02-27T04:07:09.722Z,998.88
2023-02-27T04:08:12.864Z,998.91
2023-02-27T04:09:14.264Z,998.93
2023-02-27T04:10:19.186Z,998.9
2023-02-27T04:11:26.611Z,998.96
2023-02-27T04:12:29.758Z,998.94
2023-02-27T04:14:30.978Z,999.05
2023-02-27T04:15:34.384Z,998.95
2023-02-27T04:16:36.109Z,999.03
2023-02-27T04:17:37.848Z,999.02
2023-02-27T04:18:39.631Z,999
2023-02-27T04:19:44.244Z,999.05
2023-02-27T04:20:51.625Z,999.03
2023-02-27T04:21:57.206Z,999.06
2023-02-27T04:23:03.514Z,999.01
2023-02-27T04:24:07.374Z,999
2023-02-27T04:25:11.035Z,998.98
2023-02-27T04:26:11.643Z,999.04
2023-02-27T04:27:12.781Z,999.03
2023-02-27T04:28:18.714Z,999.03
2023-02-27T04:29:21.267Z,999.01
2023-02-27T04:30:27.840Z,999.02
2023-02-27T04:31:29.866Z,999.05
2023-02-27T04:32:32.360Z,999.07
2023-02-27T04:33:35.781Z,999.07
2023-02-27T04:34:59.762Z,999.12
2023-02-27T04:36:01.492Z,999.07
2023-02-27T04:37:02.294Z,999.08
2023-02-27T04:38:07.870Z,999.08
2023-02-27T04:39:12.616Z,999.03
2023-02-27T04:40:15.843Z,999.11
2023-02-27T04:41:26.482Z,999.08
2023-02-27T04:42:27.438Z,999.14
2023-02-27T04:43:28.516Z,999.17
2023-02-27T04:44:28.865Z,999.03
2023-02-27T04:45:48.862Z,999.08
2023-02-27T04:46:49.982Z,999.07
2023-02-27T04:47:52.705Z,999.08
2023-02-27T04:48:55.444Z,999.15
2023-02-27T04:49:55.957Z,999.16
2023-02-27T04:50:57.547Z,999.12
2023-02-27T04:52:11.643Z,999.15
2023-02-27T04:53:17.637Z,999.12
2023-02-27T04:54:18.190Z,999.12
2023-02-27T04:55:41.400Z,999.2
2023-02-27T04:56:43.199Z,999.18
2023-02-27T04:57:55.376Z,999.18
2023-02-27T04:59:07.200Z,999.23
2023-02-27T05:00:09.924Z,999.25
2023-02-27T05:01:13.676Z,999.21
2023-02-27T05:02:24.440Z,999.21
2023-02-27T05:03:32.877Z,999.17
2023-02-27T05:04:38.689Z,999.21
2023-02-27T05:05:39.299Z,999.21
2023-02-27T05:06:42.329Z,999.21
2023-02-27T05:07:42.791Z,999.15
2023-02-27T05:08:45.929Z,999.15
2023-02-27T05:09:50.619Z,999.25
2023-02-27T05:10:54.243Z,999.07
2023-02-27T05:11:57.617Z,999.15
2023-02-27T05:12:58.015Z,999.18
2023-02-27T05:13:58.282Z,999.16
2023-02-27T05:15:00.184Z,999.23
2023-02-27T05:16:06.133Z,999.18
2023-02-27T05:17:06.308Z,999.22
2023-02-27T05:18:14.905Z,999.25
2023-02-27T05:19:17.246Z,999.29
2023-02-27T05:20:18.996Z,999.27
2023-02-27T05:21:20.739Z,999.28
2023-02-27T05:22:25.506Z,999.27
2023-02-27T05:23:28.183Z,999.33
2023-02-27T05:24:30.330Z,999.34
2023-02-27T05:25:30.722Z,999.33
2023-02-27T05:26:36.619Z,999.32
2023-02-27T05:27:41.161Z,999.33
2023-02-27T05:28:45.070Z,999.36
2023-02-27T05:29:49.675Z,999.4
2023-02-27T05:30:50.343Z,999.41
2023-02-27T05:31:52.175Z,999.44
2023-02-27T05:32:53.824Z,999.45
2023-02-27T05:33:56.995Z,999.47
2023-02-27T05:34:57.264Z,999.42
2023-02-27T05:36:00.456Z,999.47
2023-02-27T05:37:02.235Z,999.42
2023-02-27T05:38:03.199Z,999.42
2023-02-27T05:39:05.267Z,999.44
2023-02-27T05:40:07.003Z,999.56
2023-02-27T05:41:09.384Z,999.56
2023-02-27T05:42:10.474Z,999.53
2023-02-27T05:43:12.234Z,999.55
2023-02-27T05:44:14.073Z,999.6
2023-02-27T05:45:15.678Z,999.61
2023-02-27T05:46:17.487Z,999.54
2023-02-27T05:47:19.168Z,999.54
2023-02-27T05:48:20.892Z,999.6
2023-02-27T05:49:22.613Z,999.6
2023-02-27T05:50:24.333Z,999.56
2023-02-27T05:51:26.514Z,999.6
2023-02-27T05:52:27.800Z,999.63
2023-02-27T05:53:29.641Z,999.6
2023-02-27T05:54:31.273Z,999.62
2023-02-27T05:55:32.991Z,999.6
2023-02-27T05:56:34.773Z,999.63
2023-02-27T05:57:36.529Z,999.59
2023-02-27T05:58:38.226Z,999.65
2023-02-27T05:59:39.945Z,999.65
2023-02-27T06:00:41.727Z,999.57
2023-02-27T06:01:45.842Z,999.58
2023-02-27T06:02:45.146Z,999.65
2023-02-27T06:03:46.867Z,999.65
2023-02-27T06:04:48.640Z,999.64
2023-02-27T06:05:50.334Z,999.65
2023-02-27T06:06:50.579Z,999.63
2023-02-27T06:07:51.365Z,999.64
2023-02-27T06:08:54.092Z,999.61
2023-02-27T06:09:58.874Z,999.68
2023-02-27T06:11:25.121Z,999.64
2023-02-27T06:12:25.707Z,999.71
2023-02-27T06:13:27.459Z,999.64
2023-02-27T06:14:29.180Z,999.71
2023-02-27T06:15:30.925Z,999.74
2023-02-27T06:16:32.743Z,999.75
2023-02-27T06:17:34.386Z,999.67
2023-02-27T06:18:36.120Z,999.71
2023-02-27T06:19:37.839Z,999.75
2023-02-27T06:20:39.608Z,999.7
2023-02-27T06:21:41.318Z,999.81
2023-02-27T06:22:43.059Z,999.78
2023-02-27T06:23:44.786Z,999.85
2023-02-27T06:24:46.513Z,999.83
2023-02-27T06:25:48.246Z,999.81
2023-02-27T06:26:49.982Z,999.87
2023-02-27T06:27:51.715Z,999.84
2023-02-27T06:28:53.435Z,999.9
2023-02-27T06:29:55.223Z,999.86
2023-02-27T06:30:56.984Z,999.83
2023-02-27T06:31:58.687Z,999.89
2023-02-27T06:33:00.393Z,999.9
2023-02-27T06:34:02.110Z,999.97
2023-02-27T06:35:03.843Z,999.96
2023-02-27T06:36:05.635Z,1000.03
2023-02-27T06:37:07.300Z,999.94
2023-02-27T06:38:09.050Z,999.98
2023-02-27T06:39:10.782Z,999.97
2023-02-27T06:40:12.531Z,999.99
2023-02-27T06:41:14.228Z,999.95
2023-02-27T06:42:15.966Z,999.96
2023-02-27T06:43:17.719Z,1000.05
2023-02-27T06:44:19.632Z,1000
2023-02-27T06:45:21.179Z,1000.01
2023-02-27T06:46:23.109Z,999.97
2023-02-27T06:47:24.648Z,1000.04
2023-02-27T06:48:26.374Z,1000.01
2023-02-27T06:49:28.118Z,999.97
2023-02-27T06:50:29.863Z,999.91
2023-02-27T06:51:31.557Z,1000.02
2023-02-27T06:52:33.422Z,1000.04
2023-02-27T06:53:35.042Z,999.98
2023-02-27T06:54:36.763Z,999.99
2023-02-27T06:55:38.583Z,999.95
2023-02-27T06:56:41.149Z,1000.1
2023-02-27T06:57:42.037Z,1000.05
2023-02-27T06:58:43.770Z,1000.04
2023-02-27T06:59:45.521Z,1000.06
2023-02-27T07:00:47.198Z,1000.04
2023-02-27T07:01:48.934Z,1000.13
2023-02-27T07:02:50.683Z,1000.02
2023-02-27T07:03:52.462Z,1000.05
2023-02-27T07:04:54.186Z,1000.05
2023-02-27T07:05:55.906Z,1000
2023-02-27T07:07:34.078Z,1000.06
2023-02-27T07:07:59.348Z,1000.08
2023-02-27T07:09:06.762Z,1000.13
2023-02-27T07:10:02.841Z,1000.11
2023-02-27T07:11:04.545Z,1000.05
2023-02-27T07:12:06.269Z,1000.07
2023-02-27T07:13:08.025Z,1000.13
2023-02-27T07:14:09.710Z,1000.08
2023-02-27T07:15:11.464Z,1000.13
2023-02-27T07:16:13.330Z,1000.11
2023-02-27T07:17:14.914Z,1000.04
2023-02-27T07:18:16.689Z,1000
2023-02-27T07:19:18.371Z,1000.16
2023-02-27T07:20:20.129Z,1000.13
2023-02-27T07:21:21.850Z,1000.03
2023-02-27T07:22:23.598Z,1000
2023-02-27T07:23:25.323Z,1000.06
2023-02-27T07:24:27.121Z,1000.07
2023-02-27T07:25:28.786Z,1000.11
2023-02-27T07:26:30.510Z,1000.08
2023-02-27T07:27:32.241Z,1000.09
2023-02-27T07:28:34.051Z,1000.08
2023-02-27T07:29:35.706Z,1000.18
2023-02-27T07:30:37.434Z,1000.06
2023-02-27T07:31:39.302Z,1000.06
2023-02-27T07:32:41.004Z,1000.17
2023-02-27T07:33:42.755Z,1000.14
2023-02-27T07:34:44.410Z,1000.16
2023-02-27T07:35:46.140Z,1000.16
2023-02-27T07:36:47.883Z,1000.16
2023-02-27T07:37:49.572Z,1000.16
2023-02-27T07:38:51.325Z,1000.09
2023-02-27T07:39:53.068Z,1000.14
2023-02-27T07:40:54.813Z,1000.16
2023-02-27T07:41:56.607Z,1000.12
2023-02-27T07:42:58.291Z,1000.24
2023-02-27T07:44:00.045Z,1000.16
2023-02-27T07:45:01.794Z,1000.15
2023-02-27T07:46:03.565Z,1000.15
2023-02-27T07:47:05.210Z,1000.14
2023-02-27T07:48:06.938Z,1000.15
2023-02-27T07:49:08.685Z,1000.15
2023-02-27T07:50:10.397Z,1000.15
2023-02-27T07:51:12.146Z,1000.17
2023-02-27T07:52:13.874Z,1000.07
2023-02-27T07:53:15.647Z,1000.15
2023-02-27T07:54:17.370Z,1000.11
2023-02-27T07:55:19.083Z,1000.15
2023-02-27T07:56:20.800Z,1000.16
2023-02-27T07:57:22.603Z,1000.18
2023-02-27T07:58:24.307Z,1000.2
2023-02-27T07:59:26.013Z,1000.16
2023-02-27T08:00:27.781Z,1000.18
2023-02-27T08:01:29.539Z,1000.2
2023-02-27T08:02:31.290Z,1000.22
2023-02-27T08:03:32.953Z,1000.16
2023-02-27T08:04:34.724Z,1000.23
2023-02-27T08:05:36.418Z,1000.17
2023-02-27T08:06:38.155Z,1000.24
2023-02-27T08:07:39.841Z,1000.23
2023-02-27T08:08:41.592Z,1000.17
2023-02-27T08:09:43.360Z,1000.24
2023-02-27T08:10:45.039Z,1000.25
2023-02-27T08:11:48.896Z,1000.23
2023-02-27T08:12:48.520Z,1000.26
2023-02-27T08:14:03.362Z,1000.23
2023-02-27T08:14:52.016Z,1000.27
2023-02-27T08:15:53.776Z,1000.27
2023-02-27T08:16:55.445Z,1000.27
2023-02-27T08:17:57.227Z,1000.26
2023-02-27T08:18:58.957Z,1000.27
2023-02-27T08:20:00.690Z,1000.27
2023-02-27T08:21:02.383Z,1000.3
2023-02-27T08:22:04.117Z,1000.34
2023-02-27T08:23:05.882Z,1000.27
2023-02-27T08:24:07.613Z,1000.27
2023-02-27T08:25:09.358Z,1000.25
2023-02-27T08:26:11.079Z,1000.34
2023-02-27T08:27:12.806Z,1000.36
2023-02-27T08:28:14.532Z,1000.28
2023-02-27T08:29:17.096Z,1000.29
2023-02-27T08:30:17.992Z,1000.31
2023-02-27T08:31:19.765Z,1000.29
2023-02-27T08:32:21.549Z,1000.29
2023-02-27T08:33:23.218Z,1000.25
2023-02-27T08:34:24.952Z,1000.26
2023-02-27T08:35:26.661Z,1000.23
2023-02-27T08:36:28.810Z,1000.24
2023-02-27T08:37:30.109Z,1000.26
2023-02-27T08:38:31.883Z,1000.21
2023-02-27T08:39:33.597Z,1000.26
2023-02-27T08:40:35.315Z,1000.26
2023-02-27T08:41:37.069Z,1000.26
2023-02-27T08:42:38.830Z,1000.25
2023-02-27T08:43:40.534Z,1000.25
2023-02-27T08:44:42.300Z,1000.26
2023-02-27T08:45:44.035Z,1000.23
2023-02-27T08:46:45.706Z,1000.34
2023-02-27T08:47:47.465Z,1000.25
2023-02-27T08:48:49.185Z,1000.4
2023-02-27T08:49:50.917Z,1000.34
2023-02-27T08:50:52.687Z,1000.34
2023-02-27T08:51:54.390Z,1000.31
2023-02-27T08:52:56.130Z,1000.35
2023-02-27T08:53:57.854Z,1000.31
2023-02-27T08:54:59.602Z,1000.32
2023-02-27T08:56:01.347Z,1000.24
2023-02-27T08:57:03.051Z,1000.36
2023-02-27T08:58:04.776Z,1000.31
2023-02-27T08:59:06.525Z,1000.23
2023-02-27T09:00:08.346Z,1000.34
2023-02-27T09:01:10.096Z,1000.27
2023-02-27T09:02:11.725Z,1000.37
2023-02-27T09:03:13.473Z,1000.33
2023-02-27T09:04:15.185Z,1000.37
2023-02-27T09:05:16.921Z,1000.35
2023-02-27T09:06:18.712Z,1000.42
2023-02-27T09:07:20.422Z,1000.35
2023-02-27T09:08:22.129Z,1000.39
2023-02-27T09:09:23.846Z,1000.33
2023-02-27T09:10:25.620Z,1000.4
2023-02-27T09:11:27.719Z,1000.37
2023-02-27T09:12:29.047Z,1000.35
2023-02-27T09:13:30.797Z,1000.37
2023-02-27T09:14:32.523Z,1000.43
2023-02-27T09:15:34.265Z,1000.41
2023-02-27T09:16:36.094Z,1000.45
2023-02-27T09:17:37.731Z,1000.43
2023-02-27T09:18:39.462Z,1000.36
2023-02-27T09:19:41.208Z,1000.45
2023-02-27T09:20:42.917Z,1000.38
2023-02-27T09:21:44.650Z,1000.43
2023-02-27T09:22:46.428Z,1000.37
2023-02-27T09:23:48.323Z,1000.47
2023-02-27T09:24:49.859Z,1000.41
2023-02-27T09:25:51.640Z,1000.44
2023-02-27T09:26:53.454Z,1000.44
2023-02-27T09:27:55.057Z,1000.47
2023-02-27T09:28:56.791Z,1000.37
2023-02-27T09:29:58.521Z,1000.4
2023-02-27T09:31:00.289Z,1000.43
2023-02-27T09:32:02.190Z,1000.45
2023-02-27T09:33:03.760Z,1000.48
2023-02-27T09:34:05.453Z,1000.46
2023-02-27T09:35:07.210Z,1000.43
2023-02-27T09:36:09.063Z,1000.53
2023-02-27T09:37:10.668Z,1000.52
2023-02-27T09:38:12.410Z,1000.57
2023-02-27T09:39:14.144Z,1000.62
2023-02-27T09:40:15.998Z,1000.62
2023-02-27T09:41:17.635Z,1000.59
2023-02-27T09:42:19.375Z,1000.53
2023-02-27T09:43:21.175Z,1000.61
2023-02-27T09:44:33.452Z,1000.61
2023-02-27T09:45:24.583Z,1000.73
2023-02-27T09:46:26.639Z,1000.67
2023-02-27T09:47:28.024Z,1000.69
2023-02-27T09:48:29.765Z,1000.72
2023-02-27T09:49:31.471Z,1000.72
2023-02-27T09:50:33.987Z,1000.78
2023-02-27T09:51:34.906Z,1000.82
2023-02-27T09:52:36.643Z,1000.89
2023-02-27T09:53:38.379Z,1000.83
2023-02-27T09:54:40.157Z,1000.84
2023-02-27T09:55:41.845Z,1000.83
2023-02-27T09:56:43.585Z,1000.9
2023-02-27T09:57:45.332Z,1000.87
2023-02-27T09:58:47.074Z,1000.82
2023-02-27T09:59:48.756Z,1000.85
2023-02-27T10:00:50.520Z,1000.79
2023-02-27T10:01:52.286Z,1000.99
2023-02-27T10:02:54.085Z,1000.86
2023-02-27T10:03:55.695Z,1000.8
2023-02-27T10:04:57.472Z,1000.89
2023-02-27T10:05:59.148Z,1000.91
2023-02-27T10:07:00.895Z,1000.89
2023-02-27T10:08:02.617Z,1000.88
2023-02-27T10:09:04.313Z,1000.93
2023-02-27T10:10:06.030Z,1000.89
2023-02-27T10:11:07.770Z,1000.9
2023-02-27T10:12:09.514Z,1000.84
2023-02-27T10:13:11.254Z,1000.89
2023-02-27T10:14:12.960Z,1000.78
2023-02-27T10:15:14.642Z,1000.91
2023-02-27T10:16:16.471Z,1000.85
2023-02-27T10:17:18.104Z,1000.86
2023-02-27T10:18:26.887Z,1000.86
2023-02-27T10:19:21.591Z,1000.91
2023-02-27T10:20:23.315Z,1000.93
2023-02-27T10:21:25.294Z,1000.91
2023-02-27T10:22:26.709Z,1000.89
2023-02-27T10:23:28.437Z,1000.88
2023-02-27T10:24:30.210Z,1000.94
2023-02-27T10:25:32.492Z,1000.94
2023-02-27T10:26:33.682Z,1000.97
2023-02-27T10:27:35.365Z,1000.98
2023-02-27T10:28:37.097Z,1000.97
2023-02-27T10:29:38.815Z,1000.99
2023-02-27T10:30:40.737Z,1000.94
2023-02-27T10:31:42.298Z,1000.97
2023-02-27T10:32:44.024Z,1000.95
2023-02-27T10:33:45.755Z,1000.97
2023-02-27T10:34:47.492Z,1001.01
2023-02-27T10:35:49.243Z,1000.99
2023-02-27T10:36:50.981Z,1000.96
2023-02-27T10:37:52.717Z,1000.89
2023-02-27T10:38:54.449Z,1001.01
2023-02-27T10:39:56.151Z,1000.93
2023-02-27T10:40:57.986Z,1000.93
2023-02-27T10:41:59.614Z,1000.94
2023-02-27T10:43:01.400Z,1000.97
2023-02-27T10:44:03.081Z,1000.83
2023-02-27T10:45:04.813Z,1000.95
2023-02-27T10:46:06.650Z,1000.99
2023-02-27T10:47:08.294Z,1000.89
2023-02-27T10:48:10.032Z,1000.86
2023-02-27T10:49:11.872Z,1000.81
2023-02-27T10:50:14.954Z,1000.86
2023-02-27T10:51:15.257Z,1000.85
2023-02-27T10:52:16.957Z,1000.76
2023-02-27T10:53:18.695Z,1000.88
2023-02-27T10:54:20.460Z,1000.9
2023-02-27T10:55:22.208Z,1000.9
2023-02-27T10:56:23.913Z,1000.91
2023-02-27T10:57:25.654Z,1000.78
2023-02-27T10:58:28.495Z,1000.9
2023-02-27T10:59:29.094Z,1000.87
2023-02-27T11:00:30.823Z,1000.85
2023-02-27T11:01:32.599Z,1000.86
2023-02-27T11:02:34.299Z,1000.82
2023-02-27T11:03:36.030Z,1000.78
2023-02-27T11:04:37.886Z,1000.81
2023-02-27T11:05:39.478Z,1000.81
2023-02-27T11:06:41.192Z,1000.76
2023-02-27T11:07:42.934Z,1000.8
2023-02-27T11:08:44.658Z,1000.79
2023-02-27T11:09:46.381Z,1000.8
2023-02-27T11:10:48.149Z,1000.85
2023-02-27T11:11:49.873Z,1000.8
2023-02-27T11:12:51.610Z,1000.87
2023-02-27T11:13:53.332Z,1000.91
2023-02-27T11:14:55.088Z,1000.88
2023-02-27T11:15:56.829Z,1000.89
2023-02-27T11:16:58.651Z,1000.83
2023-02-27T11:18:00.312Z,1000.85
2023-02-27T11:19:02.012Z,1000.95
2023-02-27T11:20:03.742Z,1000.95
2023-02-27T11:21:05.485Z,1000.91
2023-02-27T11:22:07.204Z,1000.9
2023-02-27T11:23:08.956Z,1000.88
2023-02-27T11:24:10.686Z,1000.82
2023-02-27T11:25:12.406Z,1000.85
2023-02-27T11:26:14.148Z,1000.78
2023-02-27T11:27:15.888Z,1000.86
2023-02-27T11:28:17.602Z,1000.83
2023-02-27T11:29:19.357Z,1000.77
2023-02-27T11:30:21.084Z,1000.73
2023-02-27T11:31:22.938Z,1000.73
2023-02-27T11:32:24.619Z,1000.75
2023-02-27T11:33:26.294Z,1000.63
2023-02-27T11:34:28.019Z,1000.63
2023-02-27T11:35:29.862Z,1000.57
2023-02-27T11:36:31.476Z,1000.63
2023-02-27T11:37:33.214Z,1000.64
2023-02-27T11:38:34.930Z,1000.6
2023-02-27T11:39:36.676Z,1000.6
2023-02-27T11:40:38.409Z,1000.62
2023-02-27T11:41:40.153Z,1000.58
2023-02-27T11:42:41.883Z,1000.6
2023-02-27T11:43:43.639Z,1000.55
2023-02-27T11:44:50.535Z,1000.53
2023-02-27T11:46:11.023Z,1000.53
2023-02-27T11:46:49.027Z,1000.56
2023-02-27T11:47:50.607Z,1000.56
2023-02-27T11:48:52.270Z,1000.47
2023-02-27T11:49:54.033Z,1000.53
2023-02-27T11:50:55.764Z,1000.53
2023-02-27T11:51:57.512Z,1000.46
2023-02-27T11:52:59.233Z,1000.44
2023-02-27T11:54:00.965Z,1000.54
2023-02-27T11:55:02.666Z,1000.52
2023-02-27T11:56:04.407Z,1000.47
2023-02-27T11:57:06.163Z,1000.43
2023-02-27T11:58:07.887Z,1000.43
2023-02-27T11:59:09.620Z,1000.54
2023-02-27T12:00:11.476Z,1000.43
2023-02-27T12:01:13.109Z,1000.43
2023-02-27T12:02:14.851Z,1000.37
2023-02-27T12:03:16.601Z,1000.45
2023-02-27T12:04:18.390Z,1000.49
2023-02-27T12:05:20.046Z,1000.55
2023-02-27T12:06:21.892Z,1000.38
2023-02-27T12:07:23.511Z,1000.48
2023-02-27T12:08:25.199Z,1000.5
2023-02-27T12:09:26.959Z,1000.4
2023-02-27T12:10:28.677Z,1000.36
2023-02-27T12:11:30.726Z,1000.41
2023-02-27T12:12:32.114Z,1000.43
2023-02-27T12:13:33.865Z,1000.36
2023-02-27T12:14:35.612Z,1000.36
2023-02-27T12:15:37.319Z,1000.35
2023-02-27T12:16:39.144Z,1000.36
2023-02-27T12:17:40.789Z,1000.26
2023-02-27T12:18:42.532Z,1000.35
2023-02-27T12:19:44.252Z,1000.26
2023-02-27T12:20:46.002Z,1000.27
2023-02-27T12:21:49.504Z,1000.28
2023-02-27T12:22:49.457Z,1000.27
2023-02-27T12:23:51.228Z,1000.23
2023-02-27T12:24:52.945Z,1000.2
2023-02-27T12:25:54.646Z,1000.24
2023-02-27T12:26:56.460Z,1000.24
2023-02-27T12:27:58.127Z,1000.2
2023-02-27T12:28:59.907Z,1000.1
2023-02-27T12:30:01.591Z,1000.05
2023-02-27T12:31:03.341Z,1000.1
2023-02-27T12:32:05.179Z,1000.05
2023-02-27T12:33:06.814Z,999.99
2023-02-27T12:34:08.524Z,1000
2023-02-27T12:35:10.241Z,999.93
2023-02-27T12:36:12.013Z,999.96
2023-02-27T12:37:13.728Z,1000.03
2023-02-27T12:38:15.451Z,1000.07
2023-02-27T12:39:17.194Z,1000.02
2023-02-27T12:40:18.931Z,1000.04
2023-02-27T12:41:20.643Z,999.99
2023-02-27T12:42:22.405Z,1000.05
2023-02-27T12:43:24.137Z,1000.02
2023-02-27T12:44:25.849Z,1000.03
2023-02-27T12:45:27.635Z,999.97
2023-02-27T12:46:29.346Z,999.96
2023-02-27T12:47:31.060Z,999.94
2023-02-27T12:48:32.808Z,1000
2023-02-27T12:49:34.514Z,1000.04
2023-02-27T12:50:36.243Z,1000.03
2023-02-27T12:51:38.008Z,1000.07
2023-02-27T12:52:39.706Z,1000
2023-02-27T12:53:41.483Z,999.96
2023-02-27T12:54:45.212Z,999.99
2023-02-27T12:55:44.925Z,999.98
2023-02-27T12:56:46.640Z,999.95
2023-02-27T12:57:48.399Z,999.97
2023-02-27T12:58:50.172Z,1000
2023-02-27T12:59:51.870Z,999.97